Terminal Aerodrome Forecast
Issued by NWS

Home | Current Version | Previous Version | Text Only | Print | Product List | Glossary On
Versions: 1 2 3 4 5 6 7 8 9 10 11 12 13 14 15 16 17 18 19 20 21 22 23 24 25 26 27
000
FTUS43 KLSX 231725
TAFCPS
TAF
KCPS 231725Z 2318/2418 25006KT P6SM OVC020
      TEMPO 2318/2321 OVC015
     FM232300 34004KT P6SM VCSH OVC015
     FM240200 03004KT 6SM -RA OVC008
     FM241000 05008KT 2SM RA BR OVC003=

USA.gov is the U.S. government's official web portal to all federal, state and local government web resources and services.